Time;durP1;ratioP1;P1;durP2;ratioP2;P2;SDS_P1;SDS_P2;PMS_P1;PMS_P2;Temp;Humidity;BMP_temperature;BMP_pressure;BME280_temperature;BME280_humidity;BME280_pressure;Samples;Min_cycle;Max_cycle;Signal;HPM_P1;HPM_P2
2022/03/11 00:00:42;;;;;;;;;;;11.70;65.40;;;;;;4343785;33;43217;-81
2022/03/11 00:03:10;;;;;;;;;;;11.70;64.80;;;;;;4355413;33;44145;-81
2022/03/11 00:05:41;;;;;;;;;;;11.70;65.20;;;;;;4359369;33;44593;-80
2022/03/11 00:08:09;;;;;;;;;;;11.70;65.10;;;;;;4359675;33;43557;-80
2022/03/11 00:10:36;;;;;;;;;;;11.60;64.30;;;;;;4360077;32;46479;-81
2022/03/11 00:13:04;;;;;;;;;;;11.60;61.60;;;;;;4362446;32;44086;-80
2022/03/11 00:15:32;;;;;;;;;;;11.50;61.20;;;;;;4349555;32;28882;-81
2022/03/11 00:17:59;;;;;;;;;;;11.50;61.20;;;;;;4361749;32;44764;-81
2022/03/11 00:20:26;;;;;;;;;;;11.50;62.40;;;;;;4362032;32;43363;-80
2022/03/11 00:22:53;;;;;;;;;;;11.50;61.10;;;;;;4348383;32;43977;-81
2022/03/11 00:25:21;;;;;;;;;;;11.50;63.10;;;;;;4362046;32;42600;-80
2022/03/11 00:27:49;;;;;;;;;;;11.50;60.10;;;;;;4348798;32;43900;-81
2022/03/11 00:30:16;;;;;;;;;;;11.50;62.10;;;;;;4361791;32;42851;-81
2022/03/11 00:32:43;;;;;;;;;;;11.50;61.50;;;;;;4362541;32;43456;-81
2022/03/11 00:35:11;;;;;;;;;;;11.40;60.40;;;;;;4348754;32;43573;-81
2022/03/11 00:37:39;;;;;;;;;;;11.40;60.60;;;;;;4348163;32;44978;-80
2022/03/11 00:40:06;;;;;;;;;;;11.40;60.10;;;;;;4348526;32;43452;-80
2022/03/11 00:42:34;;;;;;;;;;;11.40;60.50;;;;;;4348020;32;44585;-81
2022/03/11 00:45:01;;;;;;;;;;;11.40;61.00;;;;;;4361550;32;43453;-80
2022/03/11 00:47:28;;;;;;;;;;;11.40;61.30;;;;;;4348219;32;42989;-80
2022/03/11 00:49:55;;;;;;;;;;;11.40;60.80;;;;;;4348457;32;43011;-80
2022/03/11 00:52:22;;;;;;;;;;;11.30;59.90;;;;;;4348440;32;43185;-81
2022/03/11 00:54:49;;;;;;;;;;;11.30;60.60;;;;;;4347976;32;44178;-80
2022/03/11 00:57:16;;;;;;;;;;;11.30;59.20;;;;;;4347893;32;43831;-81
2022/03/11 00:59:44;;;;;;;;;;;11.30;60.50;;;;;;4361676;32;43196;-81
2022/03/11 01:02:11;;;;;;;;;;;11.30;60.10;;;;;;4347819;32;43880;-80
2022/03/11 01:04:38;;;;;;;;;;;11.30;60.10;;;;;;4348058;32;43280;-80
2022/03/11 01:07:05;;;;;;;;;;;11.30;58.90;;;;;;4348192;32;43346;-80
2022/03/11 01:09:32;;;;;;;;;;;11.30;59.90;;;;;;4361040;32;43638;-80
2022/03/11 01:12:00;;;;;;;;;;;11.20;58.90;;;;;;4347840;32;43061;-80
2022/03/11 01:14:28;;;;;;;;;;;11.30;59.60;;;;;;4348318;32;43482;-81
2022/03/11 01:16:55;;;;;;;;;;;11.20;58.70;;;;;;4347997;32;43171;-81
2022/03/11 01:19:23;;;;;;;;;;;11.30;58.80;;;;;;4360923;32;44653;-80
2022/03/11 01:21:50;;;;;;;;;;;11.30;59.50;;;;;;4347440;32;45129;-81
2022/03/11 01:24:17;;;;;;;;;;;11.30;59.80;;;;;;4347304;32;42370;-80
2022/03/11 01:26:44;;;;;;;;;;;11.30;59.30;;;;;;4347811;32;43000;-80
2022/03/11 01:29:11;;;;;;;;;;;11.30;58.10;;;;;;4360690;32;46026;-80
2022/03/11 01:31:38;;;;;;;;;;;11.30;58.90;;;;;;4347780;32;43884;-80
2022/03/11 01:34:05;;;;;;;;;;;11.20;58.50;;;;;;4361080;32;44254;-80
2022/03/11 01:36:33;;;;;;;;;;;11.20;59.50;;;;;;4361049;32;44337;-80
2022/03/11 01:39:00;;;;;;;;;;;11.20;59.10;;;;;;4361163;32;43417;-81
2022/03/11 01:41:27;;;;;;;;;;;11.20;58.80;;;;;;4360648;32;42712;-80
2022/03/11 01:43:57;;;;;;;;;;;11.20;58.40;;;;;;4347302;32;45849;-80
2022/03/11 01:46:24;;;;;;;;;;;11.20;60.30;;;;;;4361113;32;45837;-80
2022/03/11 01:48:52;;;;;;;;;;;11.20;58.70;;;;;;4360575;32;42602;-80
2022/03/11 01:51:19;;;;;;;;;;;11.20;58.40;;;;;;4360893;32;42781;-80
2022/03/11 01:53:46;;;;;;;;;;;11.20;60.10;;;;;;4360530;32;43397;-80
2022/03/11 01:56:13;;;;;;;;;;;11.20;59.10;;;;;;4360554;32;43336;-80
2022/03/11 01:58:41;;;;;;;;;;;11.10;59.10;;;;;;4360356;32;44266;-80
2022/03/11 02:01:08;;;;;;;;;;;11.10;58.60;;;;;;4360871;32;46029;-80
2022/03/11 02:03:36;;;;;;;;;;;11.10;59.30;;;;;;4360210;32;44178;-80
2022/03/11 02:06:04;;;;;;;;;;;11.10;58.80;;;;;;4360267;32;42709;-81
2022/03/11 02:08:31;;;;;;;;;;;11.00;57.90;;;;;;4360377;32;42821;-80
2022/03/11 02:10:59;;;;;;;;;;;11.00;58.60;;;;;;4361291;32;20052;-80
2022/03/11 02:13:26;;;;;;;;;;;10.90;59.00;;;;;;4347299;32;43226;-80
2022/03/11 02:15:53;;;;;;;;;;;11.00;58.70;;;;;;4360189;32;44230;-80
2022/03/11 02:18:21;;;;;;;;;;;11.00;58.60;;;;;;4360564;32;45293;-80
2022/03/11 02:20:48;;;;;;;;;;;11.00;58.50;;;;;;4346759;32;43856;-80
2022/03/11 02:23:17;;;;;;;;;;;10.90;59.60;;;;;;4360083;32;42668;-80
2022/03/11 02:25:44;;;;;;;;;;;10.90;59.20;;;;;;4346656;32;43957;-80
2022/03/11 02:28:11;;;;;;;;;;;10.90;59.20;;;;;;4360291;32;44271;-80
2022/03/11 02:30:38;;;;;;;;;;;10.90;59.00;;;;;;4360156;32;43469;-80
2022/03/11 02:33:05;;;;;;;;;;;10.90;58.60;;;;;;4360468;32;43403;-80
2022/03/11 02:35:32;;;;;;;;;;;10.90;58.50;;;;;;4359301;32;43854;-80
2022/03/11 02:37:59;;;;;;;;;;;10.90;58.10;;;;;;4359996;32;42642;-80
2022/03/11 02:40:27;;;;;;;;;;;10.90;58.90;;;;;;4346486;32;43432;-80
2022/03/11 02:42:54;;;;;;;;;;;10.90;58.70;;;;;;4359867;32;42615;-80
2022/03/11 02:45:21;;;;;;;;;;;10.90;58.60;;;;;;4346315;32;44787;-80
2022/03/11 02:47:48;;;;;;;;;;;10.90;58.60;;;;;;4346756;32;43112;-81
2022/03/11 02:50:15;;;;;;;;;;;10.90;59.10;;;;;;4347008;32;46234;-80
2022/03/11 02:52:42;;;;;;;;;;;10.90;58.70;;;;;;4346770;32;43195;-80
2022/03/11 02:55:09;;;;;;;;;;;10.80;58.70;;;;;;4346601;32;43843;-80
2022/03/11 02:57:36;;;;;;;;;;;10.80;57.70;;;;;;4360023;32;43773;-80
2022/03/11 03:00:03;;;;;;;;;;;10.80;58.50;;;;;;4346331;32;43760;-80
2022/03/11 03:02:30;;;;;;;;;;;10.80;59.40;;;;;;4346390;32;44513;-80
2022/03/11 03:04:57;;;;;;;;;;;10.80;59.50;;;;;;4359473;32;43969;-80
2022/03/11 03:07:25;;;;;;;;;;;10.80;59.10;;;;;;4359692;33;43022;-80
2022/03/11 03:09:52;;;;;;;;;;;10.80;59.10;;;;;;4346181;33;44405;-80
2022/03/11 03:12:19;;;;;;;;;;;10.80;58.30;;;;;;4346807;33;44099;-80
2022/03/11 03:14:46;;;;;;;;;;;10.80;58.20;;;;;;4346666;33;43258;-80
2022/03/11 03:17:13;;;;;;;;;;;10.80;58.80;;;;;;4346260;33;43910;-80
2022/03/11 03:19:40;;;;;;;;;;;10.70;59.60;;;;;;4346290;33;43510;-80
2022/03/11 03:22:07;;;;;;;;;;;10.70;59.50;;;;;;4359938;33;46313;-80
2022/03/11 03:24:35;;;;;;;;;;;10.70;59.00;;;;;;4346128;33;42627;-80
2022/03/11 03:27:02;;;;;;;;;;;10.70;58.50;;;;;;4359477;33;43478;-80
2022/03/11 03:29:29;;;;;;;;;;;10.70;59.20;;;;;;4346630;33;45171;-80
2022/03/11 03:31:58;;;;;;;;;;;10.60;59.50;;;;;;4346610;33;44238;-80
2022/03/11 03:34:27;;;;;;;;;;;10.70;59.70;;;;;;4346629;33;43764;-80
2022/03/11 03:36:54;;;;;;;;;;;10.70;59.60;;;;;;4359648;33;42926;-80
2022/03/11 03:39:21;;;;;;;;;;;10.60;58.50;;;;;;4346077;33;44608;-80
2022/03/11 03:41:48;;;;;;;;;;;10.60;58.70;;;;;;4359913;33;43469;-80
2022/03/11 03:44:15;;;;;;;;;;;10.60;59.00;;;;;;4346278;33;42869;-80
2022/03/11 03:46:43;;;;;;;;;;;10.60;59.60;;;;;;4348146;32;45216;-80
2022/03/11 03:49:11;;;;;;;;;;;10.60;59.20;;;;;;4362637;32;44984;-80
2022/03/11 03:51:38;;;;;;;;;;;10.60;58.70;;;;;;4362345;32;46006;-79
2022/03/11 03:54:06;;;;;;;;;;;10.60;59.20;;;;;;4362498;32;43355;-80
2022/03/11 03:56:36;;;;;;;;;;;10.60;59.50;;;;;;4349355;32;42943;-80
2022/03/11 03:59:07;;;;;;;;;;;10.50;59.50;;;;;;4349325;32;44203;-80
2022/03/11 04:01:39;;;;;;;;;;;10.60;59.30;;;;;;4348512;32;45107;-80
2022/03/11 04:04:07;;;;;;;;;;;10.50;59.40;;;;;;4349674;32;27225;-80
2022/03/11 04:06:35;;;;;;;;;;;10.50;59.20;;;;;;4348906;32;45506;-80
2022/03/11 04:09:05;;;;;;;;;;;10.50;59.00;;;;;;4349083;32;42972;-80
2022/03/11 04:11:33;;;;;;;;;;;10.50;58.50;;;;;;4362312;32;43923;-80
2022/03/11 04:14:00;;;;;;;;;;;10.50;59.10;;;;;;4361854;32;44930;-80
2022/03/11 04:16:27;;;;;;;;;;;10.40;58.80;;;;;;4348768;32;43812;-80
2022/03/11 04:18:55;;;;;;;;;;;10.40;59.10;;;;;;4348597;32;43287;-80
2022/03/11 04:21:22;;;;;;;;;;;10.40;59.40;;;;;;4348947;32;44974;-80
2022/03/11 04:23:50;;;;;;;;;;;10.40;59.00;;;;;;4348390;32;43344;-80
2022/03/11 04:26:17;;;;;;;;;;;10.40;59.80;;;;;;4361885;32;43191;-80
2022/03/11 04:28:44;;;;;;;;;;;10.40;59.40;;;;;;4348344;32;43723;-80
2022/03/11 04:31:12;;;;;;;;;;;10.40;60.80;;;;;;4348367;32;44226;-80
2022/03/11 04:33:40;;;;;;;;;;;10.40;60.50;;;;;;4362152;32;44131;-80
2022/03/11 04:36:08;;;;;;;;;;;10.30;58.90;;;;;;4348658;32;44427;-80
2022/03/11 04:38:35;;;;;;;;;;;10.30;59.50;;;;;;4348712;32;43449;-80
2022/03/11 04:41:02;;;;;;;;;;;10.30;59.10;;;;;;4348571;32;43066;-80
2022/03/11 04:43:29;;;;;;;;;;;10.20;59.20;;;;;;4361804;32;45823;-80
2022/03/11 04:45:56;;;;;;;;;;;10.20;59.80;;;;;;4348239;32;44546;-80
2022/03/11 04:48:24;;;;;;;;;;;10.20;59.70;;;;;;4348004;32;45877;-80
2022/03/11 04:50:51;;;;;;;;;;;10.20;59.50;;;;;;4348634;32;43478;-80
2022/03/11 04:53:19;;;;;;;;;;;10.10;59.60;;;;;;4348459;32;44594;-80
2022/03/11 04:55:46;;;;;;;;;;;10.10;59.40;;;;;;4361608;32;43901;-81
2022/03/11 04:58:13;;;;;;;;;;;10.10;59.40;;;;;;4347500;32;43442;-80
2022/03/11 05:00:40;;;;;;;;;;;10.10;58.90;;;;;;4361748;32;43853;-80
2022/03/11 05:03:07;;;;;;;;;;;10.10;59.20;;;;;;4348070;32;43895;-80
2022/03/11 05:05:34;;;;;;;;;;;10.00;58.60;;;;;;4361071;32;45365;-80
2022/03/11 05:08:02;;;;;;;;;;;10.00;58.90;;;;;;4361499;32;44621;-80
2022/03/11 05:10:29;;;;;;;;;;;10.00;59.20;;;;;;4361651;32;45821;-80
2022/03/11 05:12:56;;;;;;;;;;;10.10;59.20;;;;;;4361262;32;43482;-80
2022/03/11 05:15:24;;;;;;;;;;;10.10;59.00;;;;;;4361553;32;45744;-80
2022/03/11 05:17:52;;;;;;;;;;;10.10;59.40;;;;;;4348196;32;44185;-80
2022/03/11 05:20:19;;;;;;;;;;;10.10;58.80;;;;;;4361433;32;43856;-81
2022/03/11 05:22:46;;;;;;;;;;;10.10;58.40;;;;;;4361464;32;44204;-80
2022/03/11 05:25:13;;;;;;;;;;;10.10;58.40;;;;;;4347479;32;42655;-80
2022/03/11 05:27:40;;;;;;;;;;;10.10;58.80;;;;;;4361077;32;43834;-80
2022/03/11 05:30:09;;;;;;;;;;;10.10;58.60;;;;;;4361105;32;43898;-80
2022/03/11 05:32:41;;;;;;;;;;;10.10;58.30;;;;;;4347988;32;43998;-80
2022/03/11 05:35:09;;;;;;;;;;;10.10;58.50;;;;;;4347966;32;43578;-79
2022/03/11 05:37:36;;;;;;;;;;;10.10;58.60;;;;;;4347423;32;44740;-80
2022/03/11 05:40:04;;;;;;;;;;;10.10;58.90;;;;;;4347671;32;42271;-80
2022/03/11 05:42:31;;;;;;;;;;;10.10;58.50;;;;;;4347207;32;44817;-80
2022/03/11 05:44:58;;;;;;;;;;;10.10;58.10;;;;;;4347750;32;44214;-80
2022/03/11 05:47:25;;;;;;;;;;;10.00;58.30;;;;;;4361112;32;44214;-80
2022/03/11 05:49:52;;;;;;;;;;;10.00;58.80;;;;;;4347686;32;43894;-80
2022/03/11 05:52:23;;;;;;;;;;;10.10;58.40;;;;;;4360863;32;45722;-80
2022/03/11 05:54:51;;;;;;;;;;;10.10;58.30;;;;;;4347644;32;43299;-80
2022/03/11 05:57:18;;;;;;;;;;;10.00;58.50;;;;;;4361124;32;43886;-80
2022/03/11 05:59:45;;;;;;;;;;;10.00;58.90;;;;;;4360736;32;44220;-80
2022/03/11 06:02:12;;;;;;;;;;;10.00;59.00;;;;;;4347045;32;43861;-81
2022/03/11 06:04:39;;;;;;;;;;;10.00;58.90;;;;;;4346963;32;45306;-80
2022/03/11 06:07:06;;;;;;;;;;;10.00;58.70;;;;;;4360192;32;43081;-81
2022/03/11 06:09:33;;;;;;;;;;;10.00;59.00;;;;;;4347222;32;42320;-80
2022/03/11 06:12:01;;;;;;;;;;;10.00;59.20;;;;;;4347326;32;42238;-80
2022/03/11 06:14:28;;;;;;;;;;;10.00;58.80;;;;;;4347314;32;43885;-80
2022/03/11 06:16:55;;;;;;;;;;;10.00;58.60;;;;;;4360143;32;42883;-80
2022/03/11 06:19:22;;;;;;;;;;;10.00;59.60;;;;;;4346881;32;42606;-80
2022/03/11 06:21:49;;;;;;;;;;;10.00;58.60;;;;;;4346879;32;43604;-80
2022/03/11 06:24:16;;;;;;;;;;;10.00;60.00;;;;;;4346826;32;44131;-80
2022/03/11 06:26:43;;;;;;;;;;;10.00;59.70;;;;;;4360066;32;43209;-80
2022/03/11 06:29:10;;;;;;;;;;;9.90;59.50;;;;;;4346943;32;44557;-80
2022/03/11 06:31:37;;;;;;;;;;;9.90;59.40;;;;;;4347189;32;45791;-80
2022/03/11 06:34:05;;;;;;;;;;;9.90;59.50;;;;;;4360608;32;45806;-81
2022/03/11 06:36:34;;;;;;;;;;;9.90;59.50;;;;;;4346888;32;42954;-80
2022/03/11 06:39:01;;;;;;;;;;;9.80;59.30;;;;;;4359770;32;44500;-80
2022/03/11 06:41:28;;;;;;;;;;;9.80;59.90;;;;;;4346862;32;42798;-79
2022/03/11 06:43:58;;;;;;;;;;;9.80;59.80;;;;;;4360417;32;44223;-80
2022/03/11 06:46:25;;;;;;;;;;;9.80;59.70;;;;;;4346845;32;43687;-80
2022/03/11 06:48:52;;;;;;;;;;;9.80;59.80;;;;;;4346411;32;44704;-80
2022/03/11 06:51:19;;;;;;;;;;;9.80;60.20;;;;;;4346824;32;43031;-80
2022/03/11 06:53:46;;;;;;;;;;;9.80;60.70;;;;;;4346700;32;44084;-80
2022/03/11 06:56:13;;;;;;;;;;;9.80;61.40;;;;;;4359720;32;42746;-80
2022/03/11 06:58:40;;;;;;;;;;;9.80;61.10;;;;;;4346409;32;43753;-80
2022/03/11 07:01:07;;;;;;;;;;;9.80;61.60;;;;;;4359603;32;43260;-80
2022/03/11 07:03:35;;;;;;;;;;;9.70;61.40;;;;;;4346440;32;44025;-80
2022/03/11 07:06:02;;;;;;;;;;;9.80;62.00;;;;;;4359548;32;43692;-80
2022/03/11 07:08:29;;;;;;;;;;;9.70;62.20;;;;;;4359712;32;43304;-80
2022/03/11 07:10:58;;;;;;;;;;;9.70;61.90;;;;;;4346481;33;44076;-80
2022/03/11 07:13:31;;;;;;;;;;;9.70;62.10;;;;;;4359535;33;42936;-80
2022/03/11 07:16:02;;;;;;;;;;;9.70;62.00;;;;;;4346172;33;45197;-80
2022/03/11 07:18:30;;;;;;;;;;;9.70;62.70;;;;;;4346906;33;45102;-80
2022/03/11 07:21:00;;;;;;;;;;;9.70;62.70;;;;;;4347642;32;43540;-80
2022/03/11 07:23:28;;;;;;;;;;;9.70;63.00;;;;;;4362705;32;44118;-81
2022/03/11 07:25:55;;;;;;;;;;;9.80;62.90;;;;;;4363027;32;44977;-80
2022/03/11 07:28:23;;;;;;;;;;;9.80;63.30;;;;;;4349567;32;45134;-80
2022/03/11 07:30:50;;;;;;;;;;;9.70;63.50;;;;;;4349656;32;44228;-80
2022/03/11 07:33:17;;;;;;;;;;;9.80;63.50;;;;;;4349372;32;42715;-80
2022/03/11 07:35:44;;;;;;;;;;;9.80;63.40;;;;;;4349201;32;43295;-80
2022/03/11 07:38:11;;;;;;;;;;;9.80;64.00;;;;;;4349728;32;42846;-80
2022/03/11 07:40:38;;;;;;;;;;;9.80;63.40;;;;;;4349463;32;43276;-80
2022/03/11 07:43:07;;;;;;;;;;;9.80;63.10;;;;;;4362938;32;43966;-80
2022/03/11 07:45:34;;;;;;;;;;;9.80;63.60;;;;;;4362405;32;43057;-80
2022/03/11 07:48:01;;;;;;;;;;;9.80;64.40;;;;;;4349507;32;43474;-80
2022/03/11 07:50:28;;;;;;;;;;;9.80;63.70;;;;;;4362807;32;43886;-79
2022/03/11 07:52:55;;;;;;;;;;;9.80;63.80;;;;;;4362717;32;43891;-79
2022/03/11 07:55:22;;;;;;;;;;;9.80;63.40;;;;;;4349269;32;43245;-80
2022/03/11 07:57:49;;;;;;;;;;;9.80;64.90;;;;;;4349237;32;43737;-80
2022/03/11 08:00:17;;;;;;;;;;;9.80;64.80;;;;;;4349370;32;43293;-80
2022/03/11 08:02:44;;;;;;;;;;;9.80;64.80;;;;;;4346201;33;45758;-80
2022/03/11 08:05:14;;;;;;;;;;;9.90;64.40;;;;;;4346220;33;42556;-80
2022/03/11 08:07:49;;;;;;;;;;;9.90;64.40;;;;;;4346526;33;45993;-80
2022/03/11 08:10:17;;;;;;;;;;;9.90;65.00;;;;;;4347896;33;43889;-81
2022/03/11 08:12:44;;;;;;;;;;;9.90;65.50;;;;;;4347214;33;42962;-81
2022/03/11 08:15:14;;;;;;;;;;;9.90;65.20;;;;;;4346515;33;44820;-80
2022/03/11 08:17:41;;;;;;;;;;;9.90;66.00;;;;;;4346390;33;44144;-80
2022/03/11 08:20:09;;;;;;;;;;;9.90;66.00;;;;;;4347058;33;42648;-80
2022/03/11 08:22:36;;;;;;;;;;;10.00;66.20;;;;;;4346403;33;43458;-80
2022/03/11 08:25:04;;;;;;;;;;;10.00;66.40;;;;;;4346120;33;43010;-80
2022/03/11 08:27:32;;;;;;;;;;;10.00;66.30;;;;;;4346022;33;44033;-80
2022/03/11 08:29:59;;;;;;;;;;;10.00;67.20;;;;;;4346142;33;42874;-80
2022/03/11 08:32:28;;;;;;;;;;;10.10;67.10;;;;;;4345174;33;43247;-80
2022/03/11 08:34:55;;;;;;;;;;;10.10;67.60;;;;;;4345712;33;42406;-80
2022/03/11 08:37:27;;;;;;;;;;;10.10;68.80;;;;;;4347164;33;43948;-80
2022/03/11 08:40:01;;;;;;;;;;;10.10;68.70;;;;;;4347507;33;43113;-80
2022/03/11 08:42:28;;;;;;;;;;;10.10;69.20;;;;;;4346129;33;43253;-80
2022/03/11 08:44:55;;;;;;;;;;;10.10;68.60;;;;;;4345613;33;44069;-80
2022/03/11 08:47:22;;;;;;;;;;;10.20;70.00;;;;;;4345458;33;44636;-82
2022/03/11 08:49:49;;;;;;;;;;;10.20;70.10;;;;;;4345600;33;43986;-80
2022/03/11 08:52:17;;;;;;;;;;;10.20;69.30;;;;;;4346795;33;43234;-80
2022/03/11 08:54:44;;;;;;;;;;;10.20;70.30;;;;;;4346544;33;42378;-80
2022/03/11 08:57:11;;;;;;;;;;;10.20;71.10;;;;;;4346964;33;44246;-80
2022/03/11 08:59:38;;;;;;;;;;;10.30;71.10;;;;;;4345865;33;45136;-80
2022/03/11 09:02:07;;;;;;;;;;;10.30;70.70;;;;;;4351023;32;42858;-80
2022/03/11 09:04:35;;;;;;;;;;;10.30;71.60;;;;;;4361406;32;44051;-80
2022/03/11 09:07:03;;;;;;;;;;;10.30;71.10;;;;;;4347814;32;43045;-80
2022/03/11 09:09:32;;;;;;;;;;;10.30;71.30;;;;;;4348478;32;43355;-79
2022/03/11 09:12:00;;;;;;;;;;;10.30;71.70;;;;;;4361300;32;44986;-79
2022/03/11 09:14:27;;;;;;;;;;;10.40;72.80;;;;;;4348186;32;45846;-80
2022/03/11 09:16:54;;;;;;;;;;;10.40;72.40;;;;;;4348115;32;42874;-80
2022/03/11 09:19:21;;;;;;;;;;;10.40;72.90;;;;;;4347828;32;43194;-79
2022/03/11 09:21:48;;;;;;;;;;;10.40;72.90;;;;;;4347980;32;46312;-80
2022/03/11 09:24:16;;;;;;;;;;;10.40;74.00;;;;;;4347803;32;43772;-80
2022/03/11 09:26:45;;;;;;;;;;;10.50;74.20;;;;;;4348095;32;43849;-80
2022/03/11 09:29:20;;;;;;;;;;;10.50;73.70;;;;;;4360956;32;42644;-80
2022/03/11 09:31:47;;;;;;;;;;;10.50;74.90;;;;;;4347919;32;44521;-80
2022/03/11 09:34:14;;;;;;;;;;;10.50;75.40;;;;;;4360995;32;43901;-80
2022/03/11 09:36:47;;;;;;;;;;;10.60;75.50;;;;;;4348665;32;44191;-79
2022/03/11 09:39:14;;;;;;;;;;;10.60;76.00;;;;;;4347851;32;44686;-79
2022/03/11 09:41:41;;;;;;;;;;;10.60;76.20;;;;;;4361081;32;42958;-80
2022/03/11 09:44:08;;;;;;;;;;;10.60;76.20;;;;;;4360662;32;43530;-80
2022/03/11 09:46:36;;;;;;;;;;;10.70;75.70;;;;;;4347215;32;43388;-79
2022/03/11 09:49:03;;;;;;;;;;;10.70;76.10;;;;;;4347539;32;42892;-80
2022/03/11 09:51:34;;;;;;;;;;;10.70;76.20;;;;;;4347439;32;44276;-80
2022/03/11 09:54:02;;;;;;;;;;;10.70;76.90;;;;;;4361094;32;43866;-80
2022/03/11 09:56:29;;;;;;;;;;;10.80;76.40;;;;;;4347448;32;44239;-80
2022/03/11 09:58:56;;;;;;;;;;;10.80;76.60;;;;;;4347387;32;42965;-80
2022/03/11 10:01:23;;;;;;;;;;;10.80;77.00;;;;;;4360270;32;43935;-80
2022/03/11 10:03:51;;;;;;;;;;;10.80;76.90;;;;;;4360644;32;43310;-79
2022/03/11 10:06:36;;;;;;;;;;;10.90;77.00;;;;;;4347146;32;43937;-79
2022/03/11 10:09:03;;;;;;;;;;;10.90;77.70;;;;;;4346884;32;43454;-79
2022/03/11 10:11:30;;;;;;;;;;;10.90;78.10;;;;;;4360680;32;43227;-79
2022/03/11 10:14:04;;;;;;;;;;;10.90;77.80;;;;;;4360220;32;44255;-79
2022/03/11 10:16:32;;;;;;;;;;;10.90;78.20;;;;;;4347041;32;43500;-79
2022/03/11 10:19:01;;;;;;;;;;;11.00;78.20;;;;;;4347231;32;42744;-80
2022/03/11 10:21:28;;;;;;;;;;;11.00;78.50;;;;;;4347326;32;44350;-80
2022/03/11 10:23:55;;;;;;;;;;;11.00;78.70;;;;;;4360496;32;44243;-79
2022/03/11 10:26:39;;;;;;;;;;;11.10;78.70;;;;;;4346746;32;42346;-79
2022/03/11 10:29:10;;;;;;;;;;;11.10;78.60;;;;;;4360528;32;44785;-79
2022/03/11 10:31:43;;;;;;;;;;;11.10;78.70;;;;;;4347119;32;43847;-79
2022/03/11 10:34:18;;;;;;;;;;;11.10;79.00;;;;;;4347174;32;42861;-79
2022/03/11 10:36:47;;;;;;;;;;;11.10;79.30;;;;;;4346808;32;42444;-79
2022/03/11 10:39:19;;;;;;;;;;;11.10;79.70;;;;;;4347066;32;44207;-79
2022/03/11 10:41:49;;;;;;;;;;;11.10;79.40;;;;;;4346659;32;44003;-80
2022/03/11 10:44:21;;;;;;;;;;;11.10;79.90;;;;;;4347186;32;42825;-80
2022/03/11 10:46:49;;;;;;;;;;;11.10;79.90;;;;;;4359819;32;44837;-80
2022/03/11 10:49:23;;;;;;;;;;;11.20;79.60;;;;;;4359753;32;45587;-79
2022/03/11 10:51:52;;;;;;;;;;;11.20;79.40;;;;;;4346963;32;44015;-79
2022/03/11 10:54:23;;;;;;;;;;;11.20;79.60;;;;;;4360107;32;43899;-80
2022/03/11 10:56:50;;;;;;;;;;;11.20;79.90;;;;;;4346597;32;43550;-79
2022/03/11 10:59:30;;;;;;;;;;;11.20;80.20;;;;;;4346442;32;44116;-80
2022/03/11 11:01:57;;;;;;;;;;;11.20;79.70;;;;;;4360078;32;43474;-80
2022/03/11 11:04:26;;;;;;;;;;;11.20;79.80;;;;;;4346994;32;43160;-79
2022/03/11 11:06:53;;;;;;;;;;;11.20;79.90;;;;;;4346511;32;43852;-80
2022/03/11 11:09:23;;;;;;;;;;;11.20;80.00;;;;;;4346426;32;42890;-80
2022/03/11 11:11:51;;;;;;;;;;;11.20;79.90;;;;;;4346816;33;44879;-79
2022/03/11 11:14:18;;;;;;;;;;;11.20;80.00;;;;;;4360392;33;20407;-79
2022/03/11 11:16:48;;;;;;;;;;;11.30;80.40;;;;;;4346585;33;46176;-80
2022/03/11 11:19:17;;;;;;;;;;;11.30;80.20;;;;;;4346232;33;43320;-79
2022/03/11 11:21:45;;;;;;;;;;;11.30;80.20;;;;;;4359579;33;43478;-79
2022/03/11 11:24:17;;;;;;;;;;;11.30;79.80;;;;;;4346585;33;44169;-80
2022/03/11 11:26:45;;;;;;;;;;;11.30;80.40;;;;;;4360299;33;44015;-80
2022/03/11 11:29:13;;;;;;;;;;;11.40;80.40;;;;;;4346348;33;43355;-79
2022/03/11 11:31:41;;;;;;;;;;;11.40;81.20;;;;;;4359553;33;42723;-80
2022/03/11 11:34:24;;;;;;;;;;;11.40;81.00;;;;;;4346778;33;44101;-79
2022/03/11 11:36:51;;;;;;;;;;;11.40;80.60;;;;;;4346541;33;43199;-80
2022/03/11 11:39:18;;;;;;;;;;;11.40;81.30;;;;;;4346655;33;43509;-80
2022/03/11 11:41:53;;;;;;;;;;;11.50;81.60;;;;;;4359766;32;45032;-80
2022/03/11 11:44:30;;;;;;;;;;;11.50;81.10;;;;;;4347187;33;20004;-80
2022/03/11 11:47:30;;;;;;;;;;;11.60;81.20;;;;;;4346157;33;44268;-80
2022/03/11 11:49:57;;;;;;;;;;;11.60;81.80;;;;;;4306577;33;43246;-80
2022/03/11 11:52:24;;;;;;;;;;;11.70;81.90;;;;;;4359260;33;46139;-80
2022/03/11 11:54:51;;;;;;;;;;;11.70;81.80;;;;;;4359386;33;46064;-80
2022/03/11 11:57:21;;;;;;;;;;;11.70;82.60;;;;;;4359347;33;45526;-80
2022/03/11 11:59:49;;;;;;;;;;;11.80;82.50;;;;;;4346047;33;43880;-79
2022/03/11 12:02:23;;;;;;;;;;;11.80;82.30;;;;;;4359228;33;44222;-79
2022/03/11 12:04:51;;;;;;;;;;;11.90;81.80;;;;;;4345917;33;45108;-80
2022/03/11 12:07:18;;;;;;;;;;;12.00;81.70;;;;;;4347476;32;43397;-80
2022/03/11 12:09:47;;;;;;;;;;;12.00;81.60;;;;;;4349242;32;43416;-79
2022/03/11 12:12:20;;;;;;;;;;;12.10;81.70;;;;;;4361983;32;43896;-80
2022/03/11 12:14:53;;;;;;;;;;;12.10;82.10;;;;;;4349960;32;20028;-80
2022/03/11 12:17:36;;;;;;;;;;;12.20;82.00;;;;;;4362109;32;43562;-80
2022/03/11 12:20:22;;;;;;;;;;;12.20;81.50;;;;;;4348588;32;43254;-80
2022/03/11 12:22:54;;;;;;;;;;;12.30;82.60;;;;;;4362471;32;44653;-80
2022/03/11 12:25:22;;;;;;;;;;;12.40;82.30;;;;;;4349166;32;44389;-81
2022/03/11 12:27:57;;;;;;;;;;;12.40;81.40;;;;;;4348358;32;43624;-79
2022/03/11 12:30:25;;;;;;;;;;;12.50;81.90;;;;;;4348877;32;43120;-80
2022/03/11 12:32:52;;;;;;;;;;;12.50;82.50;;;;;;4348886;32;44208;-80
2022/03/11 12:35:20;;;;;;;;;;;12.60;82.20;;;;;;4362018;32;43859;-80
2022/03/11 12:37:48;;;;;;;;;;;12.60;82.00;;;;;;4361831;32;43844;-80
2022/03/11 12:40:15;;;;;;;;;;;12.60;82.10;;;;;;4361574;32;42755;-79
2022/03/11 12:42:42;;;;;;;;;;;12.60;81.00;;;;;;4361556;32;44278;-80
2022/03/11 12:45:11;;;;;;;;;;;12.70;80.90;;;;;;4362393;32;20397;-80
2022/03/11 12:47:40;;;;;;;;;;;12.70;80.00;;;;;;4348863;32;44022;-79
2022/03/11 12:50:08;;;;;;;;;;;12.80;80.40;;;;;;4348498;32;43347;-80
2022/03/11 12:52:36;;;;;;;;;;;12.80;80.70;;;;;;4361897;32;45608;-80
2022/03/11 12:55:27;;;;;;;;;;;12.80;80.80;;;;;;4348100;32;44048;-79
2022/03/11 12:57:55;;;;;;;;;;;12.80;80.30;;;;;;4361823;32;44200;-79
2022/03/11 13:00:23;;;;;;;;;;;12.90;80.20;;;;;;4361686;32;44068;-80
2022/03/11 13:02:50;;;;;;;;;;;12.90;81.10;;;;;;4361069;32;44110;-80
2022/03/11 13:05:21;;;;;;;;;;;13.00;81.20;;;;;;4348469;32;45038;-79
2022/03/11 13:07:48;;;;;;;;;;;13.00;80.70;;;;;;4361132;32;43205;-79
2022/03/11 13:10:17;;;;;;;;;;;13.00;81.50;;;;;;4361157;32;43817;-80
2022/03/11 13:12:45;;;;;;;;;;;13.10;81.00;;;;;;4348246;32;45846;-80
2022/03/11 13:15:22;;;;;;;;;;;13.10;81.30;;;;;;4349838;32;20449;-80
2022/03/11 13:17:53;;;;;;;;;;;13.10;81.60;;;;;;4348080;32;43525;-80
2022/03/11 13:20:25;;;;;;;;;;;13.20;81.40;;;;;;4347837;32;43794;-80
2022/03/11 13:22:52;;;;;;;;;;;13.20;80.80;;;;;;4348101;32;44785;-79
2022/03/11 13:25:26;;;;;;;;;;;13.30;80.40;;;;;;4347972;32;43042;-79
2022/03/11 13:27:54;;;;;;;;;;;13.30;79.90;;;;;;4347970;32;43190;-79
2022/03/11 13:30:28;;;;;;;;;;;13.40;78.80;;;;;;4361004;32;43164;-79
2022/03/11 13:32:55;;;;;;;;;;;13.40;79.00;;;;;;4361475;32;43929;-80
2022/03/11 13:35:30;;;;;;;;;;;13.40;79.10;;;;;;4361277;32;44953;-79
2022/03/11 13:37:58;;;;;;;;;;;13.50;79.60;;;;;;4360817;32;45095;-80
2022/03/11 13:40:48;;;;;;;;;;;13.50;79.20;;;;;;4349486;32;43936;-80
2022/03/11 13:43:20;;;;;;;;;;;13.60;79.30;;;;;;4348143;32;43910;-80
2022/03/11 13:45:50;;;;;;;;;;;13.60;79.10;;;;;;4361199;32;45366;-80
2022/03/11 13:48:18;;;;;;;;;;;13.60;79.50;;;;;;4361052;32;44265;-80
2022/03/11 13:50:45;;;;;;;;;;;13.70;78.60;;;;;;4347583;32;42676;-80
2022/03/11 13:53:24;;;;;;;;;;;13.60;78.60;;;;;;4347216;32;44185;-79
2022/03/11 13:55:51;;;;;;;;;;;13.70;78.90;;;;;;4347702;32;43272;-79
2022/03/11 13:58:25;;;;;;;;;;;13.70;77.90;;;;;;4347199;32;43874;-80
2022/03/11 14:00:53;;;;;;;;;;;13.70;77.30;;;;;;4360925;32;44837;-79
2022/03/11 14:03:21;;;;;;;;;;;13.70;77.10;;;;;;4347169;32;43421;-80
2022/03/11 14:05:49;;;;;;;;;;;13.80;77.80;;;;;;4360548;32;43363;-79
2022/03/11 14:08:23;;;;;;;;;;;13.80;77.10;;;;;;4347421;32;43925;-79
2022/03/11 14:10:52;;;;;;;;;;;13.80;77.70;;;;;;4360833;32;45282;-79
2022/03/11 14:13:25;;;;;;;;;;;13.80;76.80;;;;;;4347247;32;44211;-79
2022/03/11 14:15:52;;;;;;;;;;;13.80;76.30;;;;;;4348206;32;20436;-80
2022/03/11 14:18:22;;;;;;;;;;;13.80;78.00;;;;;;4360296;32;44949;-80
2022/03/11 14:21:09;;;;;;;;;;;13.80;76.70;;;;;;4360658;32;45417;-79
2022/03/11 14:23:36;;;;;;;;;;;13.90;77.20;;;;;;4360575;32;43847;-80
2022/03/11 14:26:03;;;;;;;;;;;13.90;75.50;;;;;;4347166;32;42777;-80